createdAt,value
2023-03-15T00:00:42.521Z,91.48
2023-03-15T00:02:59.812Z,91.67
2023-03-15T00:05:16.803Z,91.40
2023-03-15T00:07:34.072Z,91.21
2023-03-15T00:09:51.007Z,91.38
2023-03-15T00:12:07.994Z,91.35
2023-03-15T00:14:24.977Z,91.52
2023-03-15T00:16:42.216Z,91.58
2023-03-15T00:18:59.300Z,91.49
2023-03-15T00:21:16.591Z,91.14
2023-03-15T00:23:33.836Z,91.44
2023-03-15T00:25:51.790Z,91.23
2023-03-15T00:28:09.050Z,91.07
2023-03-15T00:30:26.083Z,91.03
2023-03-15T00:32:42.990Z,90.88
2023-03-15T00:34:59.932Z,91.34
2023-03-15T00:37:16.913Z,91.17
2023-03-15T00:39:33.906Z,91.40
2023-03-15T00:41:51.784Z,91.02
2023-03-15T00:44:08.980Z,90.27
2023-03-15T00:46:26.034Z,90.58
2023-03-15T00:48:43.323Z,90.37
2023-03-15T00:51:00.571Z,90.12
2023-03-15T00:53:17.624Z,90.60
2023-03-15T00:55:35.895Z,90.80
2023-03-15T00:57:52.861Z,90.67
2023-03-15T01:00:09.974Z,90.73
2023-03-15T01:02:27.039Z,90.41
2023-03-15T01:04:44.167Z,90.55
2023-03-15T01:07:01.065Z,91.00
2023-03-15T01:09:18.042Z,91.06
2023-03-15T01:11:35.052Z,90.83
2023-03-15T01:13:52.363Z,91.19
2023-03-15T01:16:09.733Z,91.16
2023-03-15T01:18:26.742Z,90.78
2023-03-15T01:20:43.696Z,91.23
2023-03-15T01:23:00.736Z,91.98
2023-03-15T01:25:17.654Z,91.58
2023-03-15T01:27:34.694Z,91.60
2023-03-15T01:29:51.697Z,91.59
2023-03-15T01:32:08.752Z,92.15
2023-03-15T01:34:26.108Z,91.84
2023-03-15T01:36:43.123Z,91.92
2023-03-15T01:39:00.400Z,92.14
2023-03-15T01:41:17.301Z,92.37
2023-03-15T01:43:34.265Z,91.67
2023-03-15T01:45:51.162Z,91.43
2023-03-15T01:48:08.414Z,91.44
2023-03-15T01:50:25.470Z,91.34
2023-03-15T01:52:42.480Z,91.46
2023-03-15T01:54:59.721Z,91.42
2023-03-15T01:57:17.046Z,91.39
2023-03-15T01:59:34.311Z,91.29
2023-03-15T02:01:51.638Z,91.27
2023-03-15T02:04:08.519Z,91.57
2023-03-15T02:06:25.556Z,91.54
2023-03-15T02:08:42.830Z,91.52
2023-03-15T02:10:59.833Z,91.58
2023-03-15T02:13:16.929Z,91.73
2023-03-15T02:15:33.974Z,92.02
2023-03-15T02:17:50.924Z,91.58
2023-03-15T02:20:07.953Z,91.32
2023-03-15T02:22:25.222Z,91.33
2023-03-15T02:24:43.156Z,91.71
2023-03-15T02:27:00.207Z,91.55
2023-03-15T02:29:17.445Z,91.81
2023-03-15T02:31:34.725Z,91.60
2023-03-15T02:33:52.058Z,92.24
2023-03-15T02:36:10.055Z,91.95
2023-03-15T02:38:28.044Z,91.79
2023-03-15T02:40:44.969Z,92.07
2023-03-15T02:43:02.856Z,91.97
2023-03-15T02:45:19.923Z,91.79
2023-03-15T02:47:36.984Z,91.33
2023-03-15T02:49:53.994Z,91.10
2023-03-15T02:52:11.023Z,91.20
2023-03-15T02:54:28.100Z,91.15
2023-03-15T02:56:45.007Z,91.01
2023-03-15T02:59:02.064Z,90.84
2023-03-15T03:01:20.149Z,90.75
2023-03-15T03:03:37.095Z,90.98
2023-03-15T03:05:54.063Z,91.12
2023-03-15T03:08:11.369Z,90.91
2023-03-15T03:10:28.653Z,91.06
2023-03-15T03:12:45.592Z,91.12
2023-03-15T03:15:02.896Z,91.11
2023-03-15T03:17:19.909Z,91.00
2023-03-15T03:19:37.146Z,91.04
2023-03-15T03:21:54.222Z,91.14
2023-03-15T03:24:11.100Z,91.07
2023-03-15T03:26:28.031Z,91.35
2023-03-15T03:28:45.065Z,91.08
2023-03-15T03:31:02.442Z,91.11
2023-03-15T03:33:19.732Z,91.54
2023-03-15T03:35:36.614Z,91.91
2023-03-15T03:37:53.565Z,91.67
2023-03-15T03:40:10.592Z,91.61
2023-03-15T03:42:27.768Z,91.84
2023-03-15T03:44:44.723Z,92.23
2023-03-15T03:47:01.812Z,92.09
2023-03-15T03:49:18.969Z,92.28
2023-03-15T03:51:36.004Z,92.43
2023-03-15T03:53:53.245Z,92.66
2023-03-15T03:56:10.435Z,92.55
2023-03-15T03:58:27.390Z,92.63
2023-03-15T04:00:44.320Z,92.43
2023-03-15T04:03:01.521Z,92.18
2023-03-15T04:05:18.507Z,92.93
2023-03-15T04:07:35.479Z,92.57
2023-03-15T04:09:52.476Z,92.22
2023-03-15T04:12:09.481Z,92.03
2023-03-15T04:14:26.681Z,92.03
2023-03-15T04:16:43.986Z,91.84
2023-03-15T04:19:01.012Z,91.58
2023-03-15T04:21:18.946Z,91.98
2023-03-15T04:23:35.881Z,91.73
2023-03-15T04:25:52.958Z,91.79
2023-03-15T04:28:09.878Z,91.48
2023-03-15T04:30:26.932Z,91.79
2023-03-15T04:32:43.877Z,91.38
2023-03-15T04:35:02.159Z,91.20
2023-03-15T04:37:18.993Z,90.97
2023-03-15T04:39:36.226Z,91.47
2023-03-15T04:41:53.158Z,91.28
2023-03-15T04:44:10.175Z,91.65
2023-03-15T04:46:27.231Z,92.18
2023-03-15T04:48:44.591Z,91.86
2023-03-15T04:51:01.799Z,91.48
2023-03-15T04:53:18.841Z,91.55
2023-03-15T04:55:35.793Z,91.68
2023-03-15T04:57:52.831Z,92.29
2023-03-15T05:00:09.764Z,92.25
2023-03-15T05:02:27.104Z,92.34
2023-03-15T05:04:44.011Z,92.29
2023-03-15T05:07:01.272Z,92.39
2023-03-15T05:09:18.268Z,92.71
2023-03-15T05:11:35.499Z,92.23
2023-03-15T05:13:52.532Z,92.51
2023-03-15T05:16:09.732Z,92.63
2023-03-15T05:18:26.804Z,93.64
2023-03-15T05:20:43.838Z,93.05
2023-03-15T05:23:00.830Z,92.99
2023-03-15T05:25:17.907Z,93.04
2023-03-15T05:27:35.209Z,92.97
2023-03-15T05:29:52.092Z,93.53
2023-03-15T05:32:09.090Z,93.27
2023-03-15T05:34:26.337Z,93.51
2023-03-15T05:36:43.651Z,93.16
2023-03-15T05:39:00.621Z,93.66
2023-03-15T05:41:17.658Z,93.48
2023-03-15T05:43:34.870Z,93.38
2023-03-15T05:45:52.204Z,93.53
2023-03-15T05:48:09.300Z,93.63
2023-03-15T05:50:26.328Z,93.48
2023-03-15T05:52:43.541Z,93.58
2023-03-15T05:55:00.806Z,93.31
2023-03-15T05:57:17.738Z,93.83
2023-03-15T05:59:34.741Z,93.90
2023-03-15T06:01:51.609Z,93.98
2023-03-15T06:04:09.658Z,93.60
2023-03-15T06:06:27.008Z,93.44
2023-03-15T06:08:44.001Z,93.70
2023-03-15T06:11:00.846Z,93.50
2023-03-15T06:13:18.400Z,93.41
2023-03-15T06:15:35.737Z,93.24
2023-03-15T06:17:52.633Z,93.81
2023-03-15T06:20:09.861Z,93.29
2023-03-15T06:22:27.085Z,93.08
2023-03-15T06:24:44.430Z,93.32
2023-03-15T06:27:02.305Z,93.70
2023-03-15T06:29:19.198Z,93.89
2023-03-15T06:31:36.233Z,93.69
2023-03-15T06:33:53.375Z,94.08
2023-03-15T06:36:10.344Z,94.32
2023-03-15T06:38:28.635Z,94.27
2023-03-15T06:40:45.482Z,93.80
2023-03-15T06:43:02.489Z,93.74
2023-03-15T06:45:19.543Z,93.85
2023-03-15T06:47:36.489Z,94.37
2023-03-15T06:49:55.414Z,93.86
2023-03-15T06:52:13.965Z,93.76
2023-03-15T06:54:30.855Z,93.10
2023-03-15T06:56:48.053Z,93.65
2023-03-15T06:59:05.084Z,93.56
2023-03-15T07:01:23.387Z,92.87
2023-03-15T07:03:40.311Z,92.55
2023-03-15T07:05:57.317Z,93.38
2023-03-15T07:08:14.217Z,93.06
2023-03-15T07:10:31.539Z,92.74
2023-03-15T07:12:48.763Z,92.40
2023-03-15T07:15:05.812Z,92.61
2023-03-15T07:17:22.727Z,92.39
2023-03-15T07:19:50.232Z,93.00
2023-03-15T07:22:07.558Z,92.28
2023-03-15T07:24:24.490Z,92.33
2023-03-15T07:26:41.416Z,92.61
2023-03-15T07:28:58.709Z,92.86
2023-03-15T07:31:15.740Z,93.77
2023-03-15T07:33:32.643Z,93.80
2023-03-15T07:35:50.668Z,93.99
2023-03-15T07:38:08.789Z,93.17
2023-03-15T07:40:25.981Z,93.33
2023-03-15T07:42:43.056Z,93.75
2023-03-15T07:45:00.375Z,93.35
2023-03-15T07:47:17.691Z,93.78
2023-03-15T07:49:34.705Z,94.00
2023-03-15T07:51:51.656Z,94.36
2023-03-15T07:54:08.729Z,93.86
2023-03-15T07:56:25.702Z,93.62
2023-03-15T07:58:42.700Z,93.51
2023-03-15T08:01:00.553Z,93.76
2023-03-15T08:03:17.927Z,93.54
2023-03-15T08:05:34.909Z,93.96
2023-03-15T08:07:52.810Z,94.52
2023-03-15T08:10:10.040Z,94.11
2023-03-15T08:12:27.962Z,92.51
2023-03-15T08:14:46.119Z,93.41
2023-03-15T08:17:03.077Z,93.70
2023-03-15T08:19:20.316Z,93.37
2023-03-15T08:21:37.342Z,94.13
2023-03-15T08:23:54.252Z,94.05
2023-03-15T08:26:11.512Z,93.16
2023-03-15T08:28:28.813Z,94.18
2023-03-15T08:30:45.742Z,93.77
2023-03-15T08:33:02.842Z,93.15
2023-03-15T08:35:20.949Z,94.06
2023-03-15T08:37:37.873Z,93.33
2023-03-15T08:39:54.879Z,93.46
2023-03-15T08:42:11.961Z,92.46
2023-03-15T08:44:28.956Z,91.97
2023-03-15T08:46:47.026Z,91.65
2023-03-15T08:49:04.376Z,92.18
2023-03-15T08:51:21.344Z,91.89
2023-03-15T08:53:38.672Z,91.46
2023-03-15T08:55:55.969Z,92.03
2023-03-15T08:58:12.910Z,91.94
2023-03-15T09:00:30.789Z,90.52
2023-03-15T09:02:47.786Z,89.45
2023-03-15T09:05:04.670Z,90.35
2023-03-15T09:07:21.752Z,89.99
2023-03-15T09:09:39.938Z,89.84
2023-03-15T09:11:56.941Z,90.51
2023-03-15T09:14:13.973Z,90.04
2023-03-15T09:16:31.032Z,87.61
2023-03-15T09:18:48.186Z,88.56
2023-03-15T09:21:05.302Z,89.44
2023-03-15T09:23:22.267Z,88.18
2023-03-15T09:25:39.187Z,87.28
2023-03-15T09:27:56.155Z,86.93
2023-03-15T09:30:14.343Z,86.53
2023-03-15T09:32:31.275Z,85.83
2023-03-15T09:34:48.285Z,87.01
2023-03-15T09:37:05.286Z,85.98
2023-03-15T09:39:22.182Z,86.54
2023-03-15T09:41:39.109Z,86.37
2023-03-15T09:43:56.329Z,85.80
2023-03-15T09:46:13.464Z,85.85
2023-03-15T09:48:30.411Z,85.68
2023-03-15T09:50:47.639Z,85.93
2023-03-15T09:53:04.905Z,83.90
2023-03-15T09:55:21.929Z,83.41
2023-03-15T09:57:38.843Z,82.75
2023-03-15T09:59:55.854Z,82.95
2023-03-15T10:02:12.883Z,83.41
2023-03-15T10:04:29.948Z,84.67
2023-03-15T10:06:47.209Z,84.50
2023-03-15T10:09:04.433Z,84.11
2023-03-15T10:11:21.413Z,84.60
2023-03-15T10:13:38.463Z,84.91
2023-03-15T10:15:55.784Z,85.24
2023-03-15T10:18:12.824Z,84.06
2023-03-15T10:20:29.795Z,85.13
2023-03-15T10:22:47.093Z,84.24
2023-03-15T10:25:04.147Z,85.17
2023-03-15T10:27:21.418Z,81.45
2023-03-15T10:29:38.425Z,81.03
2023-03-15T10:31:55.760Z,79.69
2023-03-15T10:34:12.833Z,80.55
2023-03-15T10:36:30.100Z,78.86
2023-03-15T10:38:47.023Z,78.26
2023-03-15T10:41:04.005Z,76.88
2023-03-15T10:43:21.310Z,78.29
2023-03-15T10:45:38.542Z,78.51
2023-03-15T10:48:00.951Z,79.22
2023-03-15T10:50:18.517Z,79.20
2023-03-15T10:52:35.824Z,78.40
2023-03-15T10:54:58.751Z,78.08
2023-03-15T10:57:21.576Z,77.13
2023-03-15T10:59:39.550Z,77.93
2023-03-15T11:01:56.801Z,77.30
2023-03-15T11:04:13.834Z,76.54
2023-03-15T11:06:31.164Z,73.11
2023-03-15T11:08:48.343Z,72.90
2023-03-15T11:11:06.690Z,73.55
2023-03-15T11:13:23.789Z,71.32
2023-03-15T11:15:41.122Z,68.28
2023-03-15T11:17:58.059Z,70.68
2023-03-15T11:20:15.420Z,68.10
2023-03-15T11:22:33.798Z,68.86
2023-03-15T11:24:50.858Z,69.29
2023-03-15T11:27:09.185Z,66.71
2023-03-15T11:29:26.505Z,66.72
2023-03-15T11:31:43.584Z,64.93
2023-03-15T11:34:00.710Z,63.72
2023-03-15T11:36:17.790Z,62.28
2023-03-15T11:38:35.399Z,62.38
2023-03-15T11:40:52.543Z,62.48
2023-03-15T11:43:09.518Z,63.66
2023-03-15T11:45:27.497Z,60.94
2023-03-15T11:47:44.632Z,61.54
2023-03-15T11:50:01.682Z,60.83
2023-03-15T11:52:18.717Z,58.20
2023-03-15T11:54:35.783Z,60.79
2023-03-15T11:56:53.074Z,62.74
2023-03-15T11:59:10.098Z,60.28
2023-03-15T12:01:27.032Z,59.93
2023-03-15T12:03:45.242Z,59.97
2023-03-15T12:06:02.631Z,60.00
2023-03-15T12:08:20.899Z,59.07
2023-03-15T12:10:37.936Z,62.09
2023-03-15T12:12:54.899Z,60.09
2023-03-15T12:15:11.899Z,59.80
2023-03-15T12:17:29.075Z,60.24
2023-03-15T12:19:47.009Z,60.96
2023-03-15T12:22:04.006Z,61.55
2023-03-15T12:24:21.027Z,61.14
2023-03-15T12:26:38.115Z,60.47
2023-03-15T12:28:55.387Z,61.24
2023-03-15T12:31:12.837Z,62.84
2023-03-15T12:33:30.204Z,60.41
2023-03-15T12:35:47.215Z,63.13
2023-03-15T12:38:04.218Z,64.69
2023-03-15T12:40:21.380Z,64.40
2023-03-15T12:42:38.336Z,65.17
2023-03-15T12:44:55.489Z,64.76
2023-03-15T12:47:12.655Z,67.33
2023-03-15T12:49:29.663Z,67.23
2023-03-15T12:51:46.520Z,67.50
2023-03-15T12:54:04.492Z,70.45
2023-03-15T12:56:21.479Z,71.92
2023-03-15T12:58:38.588Z,72.17
2023-03-15T13:00:55.663Z,73.19
2023-03-15T13:03:12.917Z,73.56
2023-03-15T13:05:30.127Z,74.00
2023-03-15T13:07:51.734Z,74.72
2023-03-15T13:10:09.238Z,75.23
2023-03-15T13:12:26.223Z,74.03
2023-03-15T13:14:43.522Z,73.74
2023-03-15T13:17:00.473Z,73.60
2023-03-15T13:19:17.489Z,74.34
2023-03-15T13:21:34.400Z,73.81
2023-03-15T13:23:51.728Z,72.80
2023-03-15T13:26:08.694Z,70.43
2023-03-15T13:28:25.610Z,68.51
2023-03-15T13:30:42.647Z,67.74
2023-03-15T13:32:59.988Z,67.76
2023-03-15T13:35:17.018Z,67.32
2023-03-15T13:37:34.029Z,68.02
2023-03-15T13:39:52.330Z,68.06
2023-03-15T13:42:09.642Z,68.67
2023-03-15T13:44:26.569Z,69.46
2023-03-15T13:46:43.945Z,69.71
2023-03-15T13:49:00.950Z,69.13
2023-03-15T13:51:26.444Z,69.75
2023-03-15T13:53:49.917Z,70.35
2023-03-15T13:56:07.511Z,71.26
2023-03-15T13:58:24.790Z,70.58
2023-03-15T14:00:41.685Z,70.30
2023-03-15T14:02:58.591Z,70.37
2023-03-15T14:05:15.532Z,68.79
2023-03-15T14:07:32.409Z,68.00
2023-03-15T14:09:49.318Z,68.73
2023-03-15T14:12:06.636Z,67.85
2023-03-15T14:14:23.571Z,67.37
2023-03-15T14:16:57.240Z,68.48
2023-03-15T14:19:17.797Z,67.03
2023-03-15T14:21:34.742Z,68.07
2023-03-15T14:23:51.737Z,68.20
2023-03-15T14:26:08.708Z,69.22
2023-03-15T14:28:25.905Z,67.40
2023-03-15T14:30:42.936Z,64.52
2023-03-15T14:33:01.166Z,63.10
2023-03-15T14:35:18.511Z,65.58
2023-03-15T14:37:35.751Z,65.82
2023-03-15T14:39:52.839Z,63.07
2023-03-15T14:42:10.157Z,63.09
2023-03-15T14:44:28.169Z,64.55
2023-03-15T14:46:45.228Z,65.63
2023-03-15T14:49:02.358Z,62.58
2023-03-15T14:51:19.267Z,63.39
2023-03-15T14:53:36.339Z,61.55
2023-03-15T14:55:53.636Z,63.12
2023-03-15T14:58:11.000Z,64.07
2023-03-15T15:00:28.007Z,63.09
2023-03-15T15:02:44.980Z,62.13
2023-03-15T15:05:02.186Z,64.86
2023-03-15T15:07:19.181Z,62.55
2023-03-15T15:09:36.850Z,63.79
2023-03-15T15:11:55.185Z,64.30
2023-03-15T15:14:12.441Z,64.10
2023-03-15T15:16:29.835Z,64.90
2023-03-15T15:18:46.810Z,65.10
2023-03-15T15:21:03.819Z,62.81
2023-03-15T15:23:21.114Z,65.04
2023-03-15T15:25:38.089Z,65.61
2023-03-15T15:27:56.051Z,63.14
2023-03-15T15:30:16.386Z,64.32
2023-03-15T15:32:33.761Z,64.95
2023-03-15T15:34:51.158Z,64.55
2023-03-15T15:37:08.208Z,62.36
2023-03-15T15:39:25.241Z,60.77
2023-03-15T15:41:42.260Z,61.15
2023-03-15T15:43:59.196Z,61.53
2023-03-15T15:46:17.157Z,61.83
2023-03-15T15:48:34.031Z,61.34
2023-03-15T15:50:50.927Z,58.60
2023-03-15T15:53:08.006Z,59.35
2023-03-15T15:55:25.038Z,56.47
2023-03-15T15:57:42.226Z,56.26
2023-03-15T15:59:59.995Z,59.22
2023-03-15T16:02:17.233Z,59.41
2023-03-15T16:04:34.620Z,60.68
2023-03-15T16:06:51.666Z,58.17
2023-03-15T16:09:08.592Z,61.58
2023-03-15T16:11:25.679Z,60.29
2023-03-15T16:13:42.767Z,61.32
2023-03-15T16:16:01.176Z,58.72
2023-03-15T16:18:18.202Z,59.30
2023-03-15T16:20:35.410Z,61.08
2023-03-15T16:22:52.622Z,63.11
2023-03-15T16:25:09.885Z,63.87
2023-03-15T16:27:26.981Z,63.51
2023-03-15T16:29:44.294Z,64.75
2023-03-15T16:32:16.038Z,67.08
2023-03-15T16:34:35.055Z,67.23
2023-03-15T16:36:51.959Z,67.38
2023-03-15T16:39:08.991Z,67.95
2023-03-15T16:41:29.354Z,69.86
2023-03-15T16:43:49.120Z,71.06
2023-03-15T16:46:06.555Z,72.02
2023-03-15T16:48:23.536Z,72.04
2023-03-15T16:50:40.842Z,72.17
2023-03-15T16:52:57.849Z,72.40
2023-03-15T16:55:14.821Z,72.49
2023-03-15T16:57:33.118Z,73.80
2023-03-15T16:59:50.689Z,74.26
2023-03-15T17:02:07.785Z,74.12
2023-03-15T17:04:24.806Z,73.86
2023-03-15T17:06:41.970Z,74.32
2023-03-15T17:08:59.225Z,74.90
2023-03-15T17:11:16.184Z,75.57
2023-03-15T17:13:33.089Z,75.67
2023-03-15T17:15:50.456Z,76.01
2023-03-15T17:18:07.730Z,76.65
2023-03-15T17:20:25.677Z,77.33
2023-03-15T17:22:42.849Z,77.54
2023-03-15T17:25:00.840Z,79.00
2023-03-15T17:27:17.765Z,78.66
2023-03-15T17:29:34.829Z,79.88
2023-03-15T17:31:52.105Z,80.51
2023-03-15T17:34:09.030Z,80.26
2023-03-15T17:36:26.112Z,80.16
2023-03-15T17:38:43.146Z,79.71
2023-03-15T17:41:01.037Z,80.22
2023-03-15T17:43:18.031Z,80.56
2023-03-15T17:45:35.062Z,81.47
2023-03-15T17:47:52.099Z,80.64
2023-03-15T17:50:09.411Z,81.20
2023-03-15T17:52:26.703Z,81.65
2023-03-15T17:54:43.751Z,81.31
2023-03-15T17:57:01.028Z,82.18
2023-03-15T17:59:17.904Z,81.47
2023-03-15T18:01:34.982Z,81.20
2023-03-15T18:03:52.051Z,82.93
2023-03-15T18:06:10.109Z,82.94
2023-03-15T18:08:27.982Z,83.21
2023-03-15T18:10:45.083Z,83.71
2023-03-15T18:13:02.181Z,83.59
2023-03-15T18:15:19.228Z,83.60
2023-03-15T18:17:36.237Z,82.57
2023-03-15T18:19:53.204Z,83.56
2023-03-15T18:22:10.456Z,83.74
2023-03-15T18:24:27.719Z,82.71
2023-03-15T18:26:44.717Z,83.64
2023-03-15T18:29:01.710Z,83.88
2023-03-15T18:31:18.775Z,83.25
2023-03-15T18:33:35.845Z,83.97
2023-03-15T18:35:53.162Z,84.34
2023-03-15T18:38:10.166Z,84.75
2023-03-15T18:40:27.202Z,84.65
2023-03-15T18:42:44.107Z,84.90
2023-03-15T18:45:01.014Z,83.78
2023-03-15T18:47:18.142Z,83.55
2023-03-15T18:49:35.499Z,84.43
2023-03-15T18:51:52.622Z,83.71
2023-03-15T18:54:09.703Z,84.79
2023-03-15T18:56:27.161Z,84.13
2023-03-15T18:58:44.547Z,83.94
2023-03-15T19:01:01.886Z,84.41
2023-03-15T19:03:19.290Z,84.40
2023-03-15T19:05:36.968Z,84.40
2023-03-15T19:07:54.090Z,85.51
2023-03-15T19:10:11.061Z,84.84
2023-03-15T19:12:28.308Z,85.72
2023-03-15T19:14:45.468Z,84.80
2023-03-15T19:17:02.557Z,85.15
2023-03-15T19:19:19.529Z,85.74
2023-03-15T19:21:36.853Z,86.49
2023-03-15T19:23:55.172Z,86.06
2023-03-15T19:26:14.382Z,85.63
2023-03-15T19:28:31.684Z,85.38
2023-03-15T19:30:48.642Z,86.42
2023-03-15T19:33:06.157Z,86.34
2023-03-15T19:35:23.471Z,85.60
2023-03-15T19:37:40.510Z,85.87
2023-03-15T19:39:57.574Z,85.94
2023-03-15T19:42:15.622Z,86.57
2023-03-15T19:44:32.925Z,86.55
2023-03-15T19:46:50.218Z,86.29
2023-03-15T19:49:08.570Z,86.56
2023-03-15T19:51:26.259Z,86.68
2023-03-15T19:53:43.763Z,85.97
2023-03-15T19:56:02.068Z,86.21
2023-03-15T19:58:19.362Z,86.95
2023-03-15T20:00:37.597Z,86.26
2023-03-15T20:02:54.852Z,86.90
2023-03-15T20:05:11.936Z,87.04
2023-03-15T20:07:29.234Z,86.42
2023-03-15T20:09:46.515Z,86.23
2023-03-15T20:12:03.816Z,86.34
2023-03-15T20:14:20.744Z,86.66
2023-03-15T20:16:38.000Z,86.49
2023-03-15T20:18:55.292Z,86.80
2023-03-15T20:21:12.323Z,86.81
2023-03-15T20:23:29.370Z,87.13
2023-03-15T20:25:46.428Z,86.77
2023-03-15T20:28:03.751Z,86.85
2023-03-15T20:30:21.017Z,86.52
2023-03-15T20:32:38.661Z,86.72
2023-03-15T20:34:56.064Z,86.46
2023-03-15T20:37:13.042Z,86.89
2023-03-15T20:39:30.060Z,86.84
2023-03-15T20:41:47.409Z,87.52
2023-03-15T20:44:04.482Z,87.01
2023-03-15T20:46:21.430Z,87.02
2023-03-15T20:48:38.330Z,87.34
2023-03-15T20:50:55.315Z,87.07
2023-03-15T20:53:12.330Z,87.79
2023-03-15T20:55:29.691Z,87.28
2023-03-15T20:57:46.637Z,87.97
2023-03-15T21:00:03.600Z,87.95
2023-03-15T21:02:21.468Z,87.63
2023-03-15T21:04:38.508Z,87.90
2023-03-15T21:06:55.552Z,88.28
2023-03-15T21:09:12.529Z,88.23
2023-03-15T21:11:29.382Z,87.95
2023-03-15T21:13:46.610Z,88.03
2023-03-15T21:16:03.621Z,88.36
2023-03-15T21:18:20.662Z,87.86
2023-03-15T21:20:37.606Z,87.91
2023-03-15T21:22:54.829Z,88.20
2023-03-15T21:25:12.864Z,88.24
2023-03-15T21:27:29.882Z,87.56
2023-03-15T21:29:47.120Z,87.54
2023-03-15T21:32:04.585Z,88.00
2023-03-15T21:34:21.532Z,88.60
2023-03-15T21:36:39.782Z,88.60
2023-03-15T21:38:56.652Z,88.42
2023-03-15T21:41:13.719Z,87.75
2023-03-15T21:43:30.706Z,88.25
2023-03-15T21:45:47.663Z,88.49
2023-03-15T21:48:04.748Z,88.42
2023-03-15T21:50:22.066Z,88.12
2023-03-15T21:52:39.353Z,88.16
2023-03-15T21:54:56.332Z,87.58
2023-03-15T21:57:13.633Z,88.15
2023-03-15T21:59:31.655Z,87.72
2023-03-15T22:01:48.575Z,87.56
2023-03-15T22:04:05.802Z,88.14
2023-03-15T22:06:22.729Z,88.11
2023-03-15T22:08:39.754Z,88.01
2023-03-15T22:10:56.808Z,87.85
2023-03-15T22:13:13.733Z,88.59
2023-03-15T22:15:30.938Z,88.28
2023-03-15T22:17:47.906Z,88.31
2023-03-15T22:20:04.975Z,88.43
2023-03-15T22:22:22.011Z,88.31
2023-03-15T22:24:39.227Z,88.43
2023-03-15T22:26:56.549Z,88.56
2023-03-15T22:29:13.522Z,88.70
2023-03-15T22:31:31.740Z,88.89
2023-03-15T22:33:48.805Z,88.51
2023-03-15T22:36:05.865Z,88.82
2023-03-15T22:38:23.129Z,88.63
2023-03-15T22:40:40.389Z,88.90
2023-03-15T22:42:57.605Z,88.29
2023-03-15T22:45:14.558Z,89.02
2023-03-15T22:47:31.771Z,88.65
2023-03-15T22:49:48.676Z,88.87
2023-03-15T22:52:05.585Z,88.88
2023-03-15T22:54:22.674Z,88.43
2023-03-15T22:56:41.056Z,88.81
2023-03-15T22:58:58.200Z,88.38
2023-03-15T23:01:15.195Z,88.38
2023-03-15T23:03:32.280Z,88.78
2023-03-15T23:05:50.683Z,88.65
2023-03-15T23:08:07.683Z,89.43
2023-03-15T23:10:25.884Z,89.35
2023-03-15T23:12:43.063Z,89.22
2023-03-15T23:14:59.940Z,89.01
2023-03-15T23:17:16.938Z,89.07
2023-03-15T23:19:33.944Z,88.87
2023-03-15T23:21:51.007Z,88.63
2023-03-15T23:24:07.932Z,89.25
2023-03-15T23:26:24.883Z,88.12
2023-03-15T23:28:42.096Z,88.35
2023-03-15T23:30:59.203Z,88.41
2023-03-15T23:33:16.272Z,88.65
2023-03-15T23:35:33.287Z,88.86
2023-03-15T23:37:50.261Z,88.52
2023-03-15T23:40:07.301Z,89.31
2023-03-15T23:42:24.335Z,89.20
2023-03-15T23:44:41.245Z,89.33
2023-03-15T23:46:58.298Z,89.25
2023-03-15T23:49:15.433Z,88.82
2023-03-15T23:51:32.651Z,88.40
2023-03-15T23:53:49.559Z,88.69
2023-03-15T23:56:06.758Z,89.07
2023-03-15T23:58:23.806Z,89.45
